Apache Junction, AZ (85117)

11:15 AM MST on July 30, 2015 (GMT -0700)
Superstition Foothills | | Change Station
CLOSE
Current Station
Personal Weather Station
Location: Apache Junction, AZ
Elevation: 1916 ft
Nearby Weather Stations

Elev 1916 ft 33.41 °N, 111.47 °W | Updated 6 minutes ago

Partly Cloudy
Partly Cloudy
97.5 °F
Feels Like 101 °F
N
4.0
Wind Variable Wind from SSW
Gusts 11.0 mph

Today
High -- | Low -- °F
--% Chance of Precip.
Yesterday
High -- | Low -- °F
Precip. -- in
5:36 AM 7:26 PM
Waxing Gibbous, 99% visible
Pressure 30.05 in
Visibility 45.0 miles
Clouds Few 12000 ft
Scattered Clouds 20000 ft
Heat Index 101 °F
Dew Point 66 °F
Humidity 35%
Rainfall 0.00 in
Snow Depth Not available.
UV 8 out of 12
Pollen 3.50 out of 12
Air Quality Not available.
Flu Activity Not available.
METAR KIWA 301750Z VRB03KT 45SM FEW120 SCT200 34/16 A3005

More Conditions Fewer Conditions

Pressure 30.05 in
Visibility 45.0 miles
Clouds Few 12000 ft
Scattered Clouds 20000 ft
Heat Index 101 °F
Dew Point 66 °F
Humidity 35%
Rainfall 0.00 in
Snow Depth Not available.
UV 8 out of 12
Pollen 3.50 out of 12
Air Quality Not available.
Flu Activity Not available.
METAR KIWA 301750Z VRB03KT 45SM FEW120 SCT200 34/16 A3005

More Conditions Fewer Conditions

10-Day Weather Forecast

×

Almanac

Astronomy

Jul. 30, 2015 Rise Set
Actual Time
Civil Twilight
Nautical Twilight
Astronomical Twilight
Moon
Length of Visible Light
Length of Day
Tomorrow will be .
, % of the Moon is Illuminated

Today's Extremes

State Highs State Lows

Community

WunderPhotos

Upload Photos

1,842,449 photos uploaded!

WunderBlogs® & News

Nearby

Air Quality

  Air Quality AQ Index Pollutant
Not available.

Snow Depth

Station Depth Elevation

Earthquake Activity

City Distance Mag. Time & Date
Minimum magnitude displayed is 2.5.

Coastal Water Temperatures

Place Temperature

Stations

Nearby Weather Stations

Station Location Temp. Windchill Dew Point Humidity Wind Precip. Elev Updated Type